Time,TemperatureF,DewpointF,PressureIn,WindDirection,WindDirectionDegrees,WindSpeedMPH,WindSpeedGustMPH,Humidity,HourlyPrecipIn,Conditions,Clouds,dailyrainin,SoftwareType,DateUTC
2013-01-21 00:00:00,8.3,1.7,30.35,NW,312,0.0,0.0,74,0.00,,,0.00,Wunderground v.1.15,2013-01-21 06:00:00,
2013-01-21 00:10:00,8.3,1.4,30.35,WNW,302,0.0,0.0,73,0.00,,,0.00,Wunderground v.1.15,2013-01-21 06:10:00,
2013-01-21 00:20:00,8.1,1.2,30.35,NW,306,0.0,0.0,73,0.00,,,0.00,Wunderground v.1.15,2013-01-21 06:20:00,
2013-01-21 00:30:00,8.1,1.2,30.35,NW,320,1.0,1.0,73,0.00,,,0.00,Wunderground v.1.15,2013-01-21 06:30:00,
2013-01-21 00:40:00,8.1,0.9,30.35,West,261,1.0,1.0,72,0.00,,,0.00,Wunderground v.1.15,2013-01-21 06:40:00,
2013-01-21 00:50:00,7.9,0.4,30.35,NNW,348,2.0,6.0,71,0.00,,,0.00,Wunderground v.1.15,2013-01-21 06:50:00,
2013-01-21 01:00:00,7.9,0.1,30.35,NW,304,2.0,2.0,70,0.00,,,0.00,Wunderground v.1.15,2013-01-21 07:00:00,
2013-01-21 01:10:00,7.7,-0.1,30.35,NW,304,1.0,5.0,70,0.00,,,0.00,Wunderground v.1.15,2013-01-21 07:10:00,
2013-01-21 01:20:00,7.9,0.1,30.35,NW,308,1.0,5.0,70,0.00,,,0.00,Wunderground v.1.15,2013-01-21 07:20:00,
2013-01-21 01:30:00,7.9,0.1,30.35,NW,320,1.0,5.0,70,0.00,,,0.00,Wunderground v.1.15,2013-01-21 07:30:00,
2013-01-21 01:40:00,7.6,-0.1,30.35,NW,323,1.0,1.0,70,0.00,,,0.00,Wunderground v.1.15,2013-01-21 07:40:00,
2013-01-21 01:50:00,7.4,-0.3,30.35,NW,317,1.0,1.0,70,0.00,,,0.00,Wunderground v.1.15,2013-01-21 07:50:00,
2013-01-21 02:00:00,7.0,-0.7,30.35,NW,325,0.0,5.0,70,0.00,,,0.00,Wunderground v.1.15,2013-01-21 08:00:00,
2013-01-21 02:10:00,6.9,-0.8,30.35,NW,325,0.0,5.0,70,0.00,,,0.00,Wunderground v.1.15,2013-01-21 08:10:00,
2013-01-21 02:20:00,6.7,-1.0,30.35,West,271,0.0,5.0,70,0.00,,,0.00,Wunderground v.1.15,2013-01-21 08:20:00,
2013-01-21 02:30:00,6.7,-0.7,30.36,WNW,297,2.0,2.0,71,0.00,,,0.00,Wunderground v.1.15,2013-01-21 08:30:00,
2013-01-21 02:40:00,6.7,-0.7,30.36,WNW,296,1.0,5.0,71,0.00,,,0.00,Wunderground v.1.15,2013-01-21 08:40:00,
2013-01-21 02:50:00,6.5,-0.9,30.35,NW,319,4.0,4.0,71,0.00,,,0.00,Wunderground v.1.15,2013-01-21 08:50:00,
2013-01-21 03:00:00,6.5,-1.2,30.35,NNW,329,3.0,3.0,70,0.00,,,0.00,Wunderground v.1.15,2013-01-21 09:00:00,
2013-01-21 03:10:00,6.1,-1.6,30.35,North,349,3.0,6.0,70,0.00,,,0.00,Wunderground v.1.15,2013-01-21 09:10:00,
2013-01-21 03:20:00,6.0,-1.7,30.36,NW,315,4.0,10.0,70,0.00,,,0.00,Wunderground v.1.15,2013-01-21 09:20:00,
2013-01-21 03:30:00,5.8,-2.2,30.35,NNW,330,3.0,16.0,69,0.00,,,0.00,Wunderground v.1.15,2013-01-21 09:30:00,
2013-01-21 03:40:00,5.6,-2.4,30.35,NNW,328,5.0,15.0,69,0.00,,,0.00,Wunderground v.1.15,2013-01-21 09:40:00,
2013-01-21 03:50:00,5.4,-3.2,30.34,NW,321,6.0,6.0,67,0.00,,,0.00,Wunderground v.1.15,2013-01-21 09:50:00,
2013-01-21 04:00:00,5.0,-4.5,30.35,NW,320,4.0,9.0,64,0.00,,,0.00,Wunderground v.1.15,2013-01-21 10:00:00,
2013-01-21 04:10:00,4.7,-5.5,30.35,NNW,338,4.0,5.0,62,0.00,,,0.00,Wunderground v.1.15,2013-01-21 10:10:00,
2013-01-21 04:20:00,4.5,-5.7,30.35,NW,325,3.0,3.0,62,0.00,,,0.00,Wunderground v.1.15,2013-01-21 10:20:00,
2013-01-21 04:30:00,4.3,-5.9,30.35,NW,308,4.0,4.0,62,0.00,,,0.00,Wunderground v.1.15,2013-01-21 10:30:00,
2013-01-21 04:40:00,4.1,-6.0,30.35,NW,318,3.0,3.0,62,0.00,,,0.00,Wunderground v.1.15,2013-01-21 10:40:00,
2013-01-21 04:50:00,3.9,-5.9,30.36,NW,319,2.0,5.0,63,0.00,,,0.00,Wunderground v.1.15,2013-01-21 10:50:00,
2013-01-21 05:00:00,3.7,-6.4,30.36,WNW,298,5.0,5.0,62,0.00,,,0.00,Wunderground v.1.15,2013-01-21 11:00:00,
2013-01-21 05:10:00,3.5,-6.6,30.36,NNW,348,4.0,4.0,62,0.00,,,0.00,Wunderground v.1.15,2013-01-21 11:10:00,
2013-01-21 05:20:00,3.4,-6.4,30.36,North,350,4.0,4.0,63,0.00,,,0.00,Wunderground v.1.15,2013-01-21 11:20:00,
2013-01-21 05:30:00,3.2,-5.9,30.36,NNW,328,3.0,3.0,65,0.00,,,0.00,Wunderground v.1.15,2013-01-21 11:30:00,
2013-01-21 05:40:00,3.2,-5.9,30.36,NNW,346,2.0,5.0,65,0.00,,,0.00,Wunderground v.1.15,2013-01-21 11:40:00,
2013-01-21 05:50:00,3.0,-6.8,30.36,NW,323,5.0,6.0,63,0.00,,,0.00,Wunderground v.1.15,2013-01-21 11:50:00,
2013-01-21 06:00:00,2.8,-7.6,30.36,North,355,4.0,8.0,61,0.00,,,0.00,Wunderground v.1.15,2013-01-21 12:00:00,
2013-01-21 06:10:00,2.8,-7.6,30.36,WNW,297,4.0,5.0,61,0.00,,,0.00,Wunderground v.1.15,2013-01-21 12:10:00,
2013-01-21 06:20:00,2.8,-7.3,30.38,NW,309,4.0,5.0,62,0.00,,,0.00,Wunderground v.1.15,2013-01-21 12:20:00,
2013-01-21 06:30:00,2.6,-7.1,30.38,NNW,330,6.0,6.0,63,0.00,,,0.00,Wunderground v.1.15,2013-01-21 12:30:00,
2013-01-21 06:40:00,2.6,-7.1,30.38,NNW,329,5.0,5.0,63,0.00,,,0.00,Wunderground v.1.15,2013-01-21 12:40:00,
2013-01-21 06:50:00,2.6,-6.8,30.38,NW,324,3.0,5.0,64,0.00,,,0.00,Wunderground v.1.15,2013-01-21 12:50:00,
2013-01-21 07:00:00,1.8,-8.9,30.39,NW,311,5.0,5.0,60,0.00,,,0.00,Wunderground v.1.15,2013-01-21 13:00:00,
2013-01-21 07:10:00,1.3,-10.1,30.39,NNW,347,4.0,9.0,58,0.00,,,0.00,Wunderground v.1.15,2013-01-21 13:10:00,
2013-01-21 07:20:00,0.7,-11.3,30.39,North,355,5.0,5.0,56,0.00,,,0.00,Wunderground v.1.15,2013-01-21 13:20:00,
2013-01-21 07:30:00,0.3,-11.7,30.40,North,349,5.0,5.0,56,0.00,,,0.00,Wunderground v.1.15,2013-01-21 13:30:00,
2013-01-21 07:40:00,0.0,-11.6,30.40,NW,312,4.0,6.0,57,0.00,,,0.00,Wunderground v.1.15,2013-01-21 13:40:00,
2013-01-21 07:50:00,-0.2,-11.8,30.40,NW,313,4.0,10.0,57,0.00,,,0.00,Wunderground v.1.15,2013-01-21 13:50:00,
2013-01-21 08:00:00,-0.6,-11.9,30.40,NNW,332,5.0,5.0,58,0.00,,,0.00,Wunderground v.1.15,2013-01-21 14:00:00,
2013-01-21 08:10:00,-1.0,-12.6,30.40,NW,323,5.0,10.0,57,0.00,,,0.00,Wunderground v.1.15,2013-01-21 14:10:00,
2013-01-21 08:20:00,-1.2,-12.8,30.41,NNW,338,4.0,5.0,57,0.00,,,0.00,Wunderground v.1.15,2013-01-21 14:20:00,
2013-01-21 08:30:00,-1.4,-13.0,30.42,NNW,339,4.0,4.0,57,0.00,,,0.00,Wunderground v.1.15,2013-01-21 14:30:00,
2013-01-21 08:40:00,-2.0,-14.6,30.42,NW,315,6.0,11.0,54,0.00,,,0.00,Wunderground v.1.15,2013-01-21 14:40:00,
2013-01-21 08:50:00,-2.4,-15.4,30.43,NW,323,5.0,8.0,53,0.00,,,0.00,Wunderground v.1.15,2013-01-21 14:50:00,
2013-01-21 09:00:00,-2.2,-14.8,30.43,North,11,4.0,7.0,54,0.00,,,0.00,Wunderground v.1.15,2013-01-21 15:00:00,
2013-01-21 09:10:00,-2.0,-14.6,30.43,NW,306,5.0,5.0,54,0.00,,,0.00,Wunderground v.1.15,2013-01-21 15:10:00,
2013-01-21 09:20:00,-1.8,-14.4,30.43,NW,322,5.0,5.0,54,0.00,,,0.00,Wunderground v.1.15,2013-01-21 15:20:00,
2013-01-21 09:30:00,-1.8,-14.4,30.43,NNW,336,3.0,5.0,54,0.00,,,0.00,Wunderground v.1.15,2013-01-21 15:30:00,
2013-01-21 09:40:00,-1.4,-14.0,30.43,NW,314,4.0,4.0,54,0.00,,,0.00,Wunderground v.1.15,2013-01-21 15:40:00,
2013-01-21 09:50:00,-1.0,-13.7,30.43,WNW,293,3.0,5.0,54,0.00,,,0.00,Wunderground v.1.15,2013-01-21 15:50:00,
2013-01-21 10:00:00,-1.0,-13.7,30.44,NNE,23,4.0,5.0,54,0.00,,,0.00,Wunderground v.1.15,2013-01-21 16:00:00,
2013-01-21 10:10:00,-0.4,-13.1,30.44,WNW,297,3.0,5.0,54,0.00,,,0.00,Wunderground v.1.15,2013-01-21 16:10:00,
2013-01-21 10:20:00,-0.2,-12.9,30.45,NW,323,3.0,7.0,54,0.00,,,0.00,Wunderground v.1.15,2013-01-21 16:20:00,
2013-01-21 10:30:00,0.3,-12.5,30.45,NW,325,3.0,3.0,54,0.00,,,0.00,Wunderground v.1.15,2013-01-21 16:30:00,
2013-01-21 10:40:00,0.3,-12.5,30.45,NNW,337,4.0,4.0,54,0.00,,,0.00,Wunderground v.1.15,2013-01-21 16:40:00,
2013-01-21 10:50:00,0.7,-12.1,30.44,NW,317,3.0,5.0,54,0.00,,,0.00,Wunderground v.1.15,2013-01-21 16:50:00,
2013-01-21 11:00:00,0.9,-11.9,30.44,WNW,303,4.0,4.0,54,0.00,,,0.00,Wunderground v.1.15,2013-01-21 17:00:00,
2013-01-21 11:10:00,1.8,-11.0,30.44,NNW,341,3.0,7.0,54,0.00,,,0.00,Wunderground v.1.15,2013-01-21 17:10:00,
2013-01-21 11:20:00,2.0,-11.2,30.43,NNW,335,4.0,4.0,53,0.00,,,0.00,Wunderground v.1.15,2013-01-21 17:20:00,
2013-01-21 11:30:00,2.0,-11.2,30.43,NNW,342,4.0,5.0,53,0.00,,,0.00,Wunderground v.1.15,2013-01-21 17:30:00,
2013-01-21 11:40:00,2.8,-9.7,30.43,NW,310,2.0,2.0,55,0.00,,,0.00,Wunderground v.1.15,2013-01-21 17:40:00,
2013-01-21 11:50:00,3.9,-8.7,30.43,NNW,335,3.0,3.0,55,0.00,,,0.00,Wunderground v.1.15,2013-01-21 17:50:00,
2013-01-21 12:00:00,3.7,-9.3,30.42,NW,313,3.0,3.0,54,0.00,,,0.00,Wunderground v.1.15,2013-01-21 18:00:00,
2013-01-21 12:10:00,4.5,-8.5,30.42,NW,325,3.0,5.0,54,0.00,,,0.00,Wunderground v.1.15,2013-01-21 18:10:00,
2013-01-21 12:20:00,4.3,-8.7,30.41,NNW,342,3.0,3.0,54,0.00,,,0.00,Wunderground v.1.15,2013-01-21 18:20:00,
2013-01-21 12:30:00,5.0,-7.7,30.40,NNW,327,3.0,3.0,55,0.00,,,0.00,Wunderground v.1.15,2013-01-21 18:30:00,
2013-01-21 12:40:00,4.8,-7.9,30.40,NW,325,2.0,5.0,55,0.00,,,0.00,Wunderground v.1.15,2013-01-21 18:40:00,
2013-01-21 12:50:00,5.4,-6.9,30.40,North,5,1.0,5.0,56,0.00,,,0.00,Wunderground v.1.15,2013-01-21 18:50:00,
2013-01-21 13:00:00,5.8,-6.5,30.39,NNW,340,3.0,3.0,56,0.00,,,0.00,Wunderground v.1.15,2013-01-21 19:00:00,
2013-01-21 13:10:00,6.0,-6.4,30.39,West,269,4.0,4.0,56,0.00,,,0.00,Wunderground v.1.15,2013-01-21 19:10:00,
2013-01-21 13:20:00,6.5,-5.9,30.39,NNW,338,3.0,5.0,56,0.00,,,0.00,Wunderground v.1.15,2013-01-21 19:20:00,
2013-01-21 13:30:00,6.9,-6.3,30.39,NW,317,4.0,4.0,54,0.00,,,0.00,Wunderground v.1.15,2013-01-21 19:30:00,
2013-01-21 13:40:00,7.4,-5.8,30.39,WNW,291,3.0,5.0,54,0.00,,,0.00,Wunderground v.1.15,2013-01-21 19:40:00,
2013-01-21 13:50:00,7.4,-5.0,30.39,West,281,4.0,6.0,56,0.00,,,0.00,Wunderground v.1.15,2013-01-21 19:50:00,
2013-01-21 14:00:00,7.6,-5.6,30.38,NE,34,4.0,4.0,54,0.00,,,0.00,Wunderground v.1.15,2013-01-21 20:00:00,
2013-01-21 14:10:00,8.1,-5.1,30.38,NNW,344,2.0,2.0,54,0.00,,,0.00,Wunderground v.1.15,2013-01-21 20:10:00,
2013-01-21 14:20:00,7.9,-4.9,30.38,NW,320,3.0,5.0,55,0.00,,,0.00,Wunderground v.1.15,2013-01-21 20:20:00,
2013-01-21 14:30:00,8.4,-4.9,30.38,NW,308,3.0,3.0,54,0.00,,,0.00,Wunderground v.1.15,2013-01-21 20:30:00,
2013-01-21 14:40:00,8.4,-4.9,30.38,West,269,4.0,4.0,54,0.00,,,0.00,Wunderground v.1.15,2013-01-21 20:40:00,
2013-01-21 14:50:00,8.4,-5.6,30.37,West,270,4.0,5.0,52,0.00,,,0.00,Wunderground v.1.15,2013-01-21 20:50:00,
2013-01-21 15:00:00,9.2,-5.3,30.37,NNW,328,3.0,5.0,51,0.00,,,0.00,Wunderground v.1.15,2013-01-21 21:00:00,
2013-01-21 15:10:00,9.9,-4.2,30.37,WNW,284,3.0,3.0,52,0.00,,,0.00,Wunderground v.1.15,2013-01-21 21:10:00,
2013-01-21 15:20:00,9.5,-5.0,30.37,WNW,297,3.0,5.0,51,0.00,,,0.00,Wunderground v.1.15,2013-01-21 21:20:00,
2013-01-21 15:30:00,9.5,-5.0,30.38,West,270,2.0,5.0,51,0.00,,,0.00,Wunderground v.1.15,2013-01-21 21:30:00,
2013-01-21 15:40:00,9.0,-5.1,30.38,WNW,283,5.0,5.0,52,0.00,,,0.00,Wunderground v.1.15,2013-01-21 21:40:00,
2013-01-21 15:50:00,9.0,-5.1,30.37,West,264,3.0,9.0,52,0.00,,,0.00,Wunderground v.1.15,2013-01-21 21:50:00,
2013-01-21 16:00:00,9.3,-4.0,30.37,West,281,2.0,5.0,54,0.00,,,0.00,Wunderground v.1.15,2013-01-21 22:00:00,
2013-01-21 16:10:00,9.3,-4.0,30.37,WNW,283,2.0,7.0,54,0.00,,,0.00,Wunderground v.1.15,2013-01-21 22:10:00,
2013-01-21 16:20:00,8.8,-4.1,30.37,WSW,248,2.0,7.0,55,0.00,,,0.00,Wunderground v.1.15,2013-01-21 22:20:00,
2013-01-21 16:30:00,8.8,-3.4,30.36,West,269,2.0,2.0,57,0.00,,,0.00,Wunderground v.1.15,2013-01-21 22:30:00,
2013-01-21 16:40:00,8.8,-3.4,30.36,West,278,1.0,5.0,57,0.00,,,0.00,Wunderground v.1.15,2013-01-21 22:40:00,
2013-01-21 16:50:00,8.8,-3.4,30.36,WNW,302,1.0,1.0,57,0.00,,,0.00,Wunderground v.1.15,2013-01-21 22:50:00,
2013-01-21 17:00:00,8.8,-3.4,30.37,West,280,1.0,1.0,57,0.00,,,0.00,Wunderground v.1.15,2013-01-21 23:00:00,
2013-01-21 17:10:00,8.6,-3.5,30.37,WNW,284,1.0,5.0,57,0.00,,,0.00,Wunderground v.1.15,2013-01-21 23:10:00,
2013-01-21 17:20:00,8.6,-3.5,30.37,West,281,1.0,5.0,57,0.00,,,0.00,Wunderground v.1.15,2013-01-21 23:20:00,
2013-01-21 17:30:00,8.3,-3.5,30.37,West,266,2.0,5.0,58,0.00,,,0.00,Wunderground v.1.15,2013-01-21 23:30:00,
2013-01-21 17:40:00,8.3,-3.5,30.37,West,269,1.0,1.0,58,0.00,,,0.00,Wunderground v.1.15,2013-01-21 23:40:00,
2013-01-21 17:50:00,8.1,-3.6,30.37,WNW,299,1.0,1.0,58,0.00,,,0.00,Wunderground v.1.15,2013-01-21 23:50:00,
2013-01-21 18:00:00,8.1,-3.3,30.37,WNW,296,0.0,5.0,59,0.00,,,0.00,Wunderground v.1.15,2013-01-22 00:00:00,
2013-01-21 18:10:00,7.9,-3.8,30.37,WNW,282,1.0,1.0,58,0.00,,,0.00,Wunderground v.1.15,2013-01-22 00:10:00,
2013-01-21 18:20:00,7.7,-3.7,30.37,West,275,1.0,1.0,59,0.00,,,0.00,Wunderground v.1.15,2013-01-22 00:20:00,
2013-01-21 18:30:00,7.7,-3.7,30.37,West,275,1.0,1.0,59,0.00,,,0.00,Wunderground v.1.15,2013-01-22 00:30:00,
2013-01-21 18:40:00,7.6,-3.8,30.37,West,275,0.0,5.0,59,0.00,,,0.00,Wunderground v.1.15,2013-01-22 00:40:00,
2013-01-21 18:50:00,7.4,-3.6,30.37,West,275,0.0,5.0,60,0.00,,,0.00,Wunderground v.1.15,2013-01-22 00:50:00,
2013-01-21 19:00:00,7.2,-3.8,30.38,West,275,0.0,5.0,60,0.00,,,0.00,Wunderground v.1.15,2013-01-22 01:00:00,
2013-01-21 19:10:00,7.2,-3.8,30.38,West,275,0.0,5.0,60,0.00,,,0.00,Wunderground v.1.15,2013-01-22 01:10:00,
2013-01-21 19:20:00,7.0,-4.0,30.38,West,275,0.0,5.0,60,0.00,,,0.00,Wunderground v.1.15,2013-01-22 01:20:00,
2013-01-21 19:30:00,7.0,-3.6,30.38,NW,321,1.0,5.0,61,0.00,,,0.00,Wunderground v.1.15,2013-01-22 01:30:00,
2013-01-21 19:40:00,7.2,-3.1,30.38,NW,314,1.0,1.0,62,0.00,,,0.00,Wunderground v.1.15,2013-01-22 01:40:00,
2013-01-21 19:50:00,7.2,-3.1,30.38,WNW,298,1.0,1.0,62,0.00,,,0.00,Wunderground v.1.15,2013-01-22 01:50:00,
2013-01-21 20:00:00,7.0,-3.3,30.39,WNW,288,0.0,5.0,62,0.00,,,0.00,Wunderground v.1.15,2013-01-22 02:00:00,
2013-01-21 20:10:00,6.9,-3.4,30.39,NNW,329,0.0,5.0,62,0.00,,,0.00,Wunderground v.1.15,2013-01-22 02:10:00,
2013-01-21 20:20:00,6.7,-3.6,30.39,NNW,329,0.0,5.0,62,0.00,,,0.00,Wunderground v.1.15,2013-01-22 02:20:00,
2013-01-21 20:30:00,6.5,-3.4,30.39,NNW,329,0.0,5.0,63,0.00,,,0.00,Wunderground v.1.15,2013-01-22 02:30:00,
2013-01-21 20:40:00,6.1,-3.8,30.39,NNW,329,0.0,5.0,63,0.00,,,0.00,Wunderground v.1.15,2013-01-22 02:40:00,
2013-01-21 20:50:00,5.8,-4.1,30.39,NNW,329,0.0,5.0,63,0.00,,,0.00,Wunderground v.1.15,2013-01-22 02:50:00,
2013-01-21 21:00:00,5.6,-4.3,30.39,NNW,329,0.0,5.0,63,0.00,,,0.00,Wunderground v.1.15,2013-01-22 03:00:00,
2013-01-21 21:10:00,5.4,-4.2,30.39,NNW,329,0.0,5.0,64,0.00,,,0.00,Wunderground v.1.15,2013-01-22 03:10:00,
2013-01-21 21:20:00,5.0,-4.5,30.39,NW,309,0.0,5.0,64,0.00,,,0.00,Wunderground v.1.15,2013-01-22 03:20:00,
2013-01-21 21:30:00,5.0,-4.5,30.39,NW,317,0.0,5.0,64,0.00,,,0.00,Wunderground v.1.15,2013-01-22 03:30:00,
2013-01-21 21:40:00,4.8,-4.7,30.39,NW,317,0.0,5.0,64,0.00,,,0.00,Wunderground v.1.15,2013-01-22 03:40:00,
2013-01-21 21:50:00,4.7,-4.5,30.39,NW,317,0.0,5.0,65,0.00,,,0.00,Wunderground v.1.15,2013-01-22 03:50:00,
2013-01-21 22:00:00,4.5,-4.7,30.39,NW,317,0.0,5.0,65,0.00,,,0.00,Wunderground v.1.15,2013-01-22 04:00:00,
2013-01-21 22:10:00,4.3,-4.9,30.39,NW,317,0.0,5.0,65,0.00,,,0.00,Wunderground v.1.15,2013-01-22 04:10:00,
2013-01-21 22:20:00,4.3,-4.9,30.39,NW,317,0.0,5.0,65,0.00,,,0.00,Wunderground v.1.15,2013-01-22 04:20:00,
2013-01-21 22:30:00,4.1,-4.8,30.39,NW,317,0.0,5.0,66,0.00,,,0.00,Wunderground v.1.15,2013-01-22 04:30:00,
2013-01-21 22:40:00,4.1,-4.8,30.39,NW,317,0.0,5.0,66,0.00,,,0.00,Wunderground v.1.15,2013-01-22 04:40:00,
2013-01-21 22:50:00,3.9,-4.9,30.39,NW,317,0.0,5.0,66,0.00,,,0.00,Wunderground v.1.15,2013-01-22 04:50:00,
2013-01-21 23:00:00,3.7,-5.1,30.39,NW,317,0.0,5.0,66,0.00,,,0.00,Wunderground v.1.15,2013-01-22 05:00:00,
2013-01-21 23:10:00,3.7,-4.8,30.39,NW,317,0.0,5.0,67,0.00,,,0.00,Wunderground v.1.15,2013-01-22 05:10:00,
2013-01-21 23:20:00,3.5,-5.0,30.39,NW,317,0.0,5.0,67,0.00,,,0.00,Wunderground v.1.15,2013-01-22 05:20:00,
2013-01-21 23:30:00,3.5,-5.0,30.39,NW,317,0.0,5.0,67,0.00,,,0.00,Wunderground v.1.15,2013-01-22 05:30:00,
2013-01-21 23:40:00,3.4,-5.1,30.39,NW,317,0.0,5.0,67,0.00,,,0.00,Wunderground v.1.15,2013-01-22 05:40:00,
2013-01-21 23:50:00,3.4,-5.1,30.39,NW,317,0.0,5.0,67,0.00,,,0.00,Wunderground v.1.15,2013-01-22 05:50:00,